RUK8491 EGCC-EGAE
Flight info
| Callsign | RUK8491 |
|---|---|
| Flight time | 0h 44m |
| Altitude | 24000 |
| Route | EKLAD Y53 WAL M146 IPSET P6 BELZU |
| Aircraft | B738/M-SDE2E3FGHIRWXY/LB1 |
Departure
| Time | 2026-04-26 12:38 |
|---|---|
| Airport | Manchester Airport (EGCC) |
Arrival
| Time | 2026-04-26 13:23 |
|---|---|
| Airport | City of Derry Airport (EGAE) |
| Time | Latitude | Longitude | Altitude | Speed | Heading |
|---|---|---|---|---|---|
| 2026-04-26 12:08 | 53.36089 | -2.26796 | 254 ft | 0 kts | 313° |
| 2026-04-26 12:25 | 53.36080 | -2.26780 | 254 ft | 4 kts | 313° |
| 2026-04-26 12:26 | 53.36065 | -2.26754 | 254 ft | 4 kts | 318° |
| 2026-04-26 12:26 | 53.36044 | -2.26734 | 254 ft | 4 kts | 5° |
| 2026-04-26 12:26 | 53.36025 | -2.26751 | 254 ft | 4 kts | 51° |
| 2026-04-26 12:26 | 53.36012 | -2.26778 | 254 ft | 0 kts | 51° |
| 2026-04-26 12:29 | 53.36016 | -2.26770 | 254 ft | 3 kts | 51° |
| 2026-04-26 12:30 | 53.36043 | -2.26715 | 254 ft | 8 kts | 51° |
| 2026-04-26 12:30 | 53.36065 | -2.26627 | 254 ft | 9 kts | 99° |
| 2026-04-26 12:30 | 53.36049 | -2.26534 | 255 ft | 9 kts | 83° |
| 2026-04-26 12:31 | 53.36113 | -2.26375 | 254 ft | 8 kts | 52° |
| 2026-04-26 12:31 | 53.36149 | -2.26303 | 254 ft | 8 kts | 50° |
| 2026-04-26 12:31 | 53.36190 | -2.26249 | 254 ft | 8 kts | 33° |
| 2026-04-26 12:31 | 53.36222 | -2.26196 | 254 ft | 3 kts | 51° |
| 2026-04-26 12:32 | 53.36237 | -2.26168 | 254 ft | 3 kts | 51° |
| 2026-04-26 12:32 | 53.36250 | -2.26139 | 254 ft | 3 kts | 51° |
| 2026-04-26 12:32 | 53.36255 | -2.26131 | 254 ft | 3 kts | 52° |
| 2026-04-26 12:33 | 53.36272 | -2.26066 | 255 ft | 8 kts | 87° |
| 2026-04-26 12:33 | 53.36270 | -2.26038 | 254 ft | 0 kts | 97° |
| 2026-04-26 12:36 | 53.36270 | -2.26033 | 254 ft | 3 kts | 97° |
| 2026-04-26 12:36 | 53.36280 | -2.25945 | 254 ft | 9 kts | 70° |
| 2026-04-26 12:36 | 53.36288 | -2.25840 | 255 ft | 9 kts | 93° |
| 2026-04-26 12:37 | 53.36252 | -2.25757 | 260 ft | 9 kts | 145° |
| 2026-04-26 12:37 | 53.36199 | -2.25789 | 258 ft | 8 kts | 229° |
| 2026-04-26 12:37 | 53.36196 | -2.25796 | 258 ft | 0 kts | 230° |
| 2026-04-26 12:37 | 53.36092 | -2.26008 | 256 ft | 58 kts | 231° |
| 2026-04-26 12:38 | 53.35712 | -2.26799 | 267 ft | 117 kts | 231° |
| 2026-04-26 12:38 | 53.35098 | -2.28088 | 387 ft | 152 kts | 228° |
| 2026-04-26 12:38 | 53.34429 | -2.29545 | 854 ft | 164 kts | 230° |
| 2026-04-26 12:38 | 53.33733 | -2.31085 | 1490 ft | 167 kts | 231° |
| 2026-04-26 12:39 | 53.33011 | -2.32640 | 2025 ft | 178 kts | 230° |
| 2026-04-26 12:39 | 53.32403 | -2.34604 | 2294 ft | 204 kts | 259° |
| 2026-04-26 12:39 | 53.32437 | -2.36987 | 2871 ft | 208 kts | 272° |
| 2026-04-26 12:39 | 53.32526 | -2.39400 | 3519 ft | 210 kts | 271° |
| 2026-04-26 12:40 | 53.32595 | -2.41933 | 4011 ft | 223 kts | 270° |
| 2026-04-26 12:40 | 53.32569 | -2.43641 | 4502 ft | 218 kts | 258° |
| 2026-04-26 12:40 | 53.32152 | -2.46062 | 5013 ft | 216 kts | 251° |
| 2026-04-26 12:40 | 53.31679 | -2.48503 | 5291 ft | 232 kts | 251° |
| 2026-04-26 12:41 | 53.30991 | -2.52149 | 5661 ft | 257 kts | 251° |
| 2026-04-26 12:41 | 53.30625 | -2.54113 | 6077 ft | 263 kts | 252° |
| 2026-04-26 12:41 | 53.30085 | -2.57033 | 6802 ft | 266 kts | 250° |
| 2026-04-26 12:41 | 53.29534 | -2.60025 | 7507 ft | 269 kts | 251° |
| 2026-04-26 12:42 | 53.28987 | -2.63001 | 8409 ft | 267 kts | 251° |
| 2026-04-26 12:42 | 53.28442 | -2.65958 | 9303 ft | 266 kts | 251° |
| 2026-04-26 12:42 | 53.27894 | -2.68923 | 10111 ft | 268 kts | 251° |
| 2026-04-26 12:42 | 53.27331 | -2.71960 | 10651 ft | 280 kts | 251° |
| 2026-04-26 12:43 | 53.26733 | -2.75178 | 10836 ft | 304 kts | 251° |
| 2026-04-26 12:43 | 53.26102 | -2.78679 | 11144 ft | 322 kts | 256° |
| 2026-04-26 12:43 | 53.26071 | -2.82459 | 11778 ft | 331 kts | 281° |
| 2026-04-26 12:43 | 53.26915 | -2.86028 | 12672 ft | 335 kts | 300° |
| 2026-04-26 12:44 | 53.28277 | -2.89244 | 13384 ft | 340 kts | 304° |
| 2026-04-26 12:44 | 53.29710 | -2.92374 | 13988 ft | 346 kts | 305° |
| 2026-04-26 12:44 | 53.31186 | -2.95574 | 14626 ft | 349 kts | 305° |
| 2026-04-26 12:44 | 53.32669 | -2.98820 | 15223 ft | 353 kts | 305° |
| 2026-04-26 12:45 | 53.34157 | -3.02118 | 15837 ft | 357 kts | 305° |
| 2026-04-26 12:45 | 53.35651 | -3.05460 | 16495 ft | 360 kts | 304° |
| 2026-04-26 12:45 | 53.37151 | -3.08835 | 17164 ft | 363 kts | 304° |
| 2026-04-26 12:45 | 53.38676 | -3.12272 | 17681 ft | 370 kts | 304° |
| 2026-04-26 12:46 | 53.40333 | -3.15610 | 18249 ft | 376 kts | 311° |
| 2026-04-26 12:46 | 53.42147 | -3.18718 | 18877 ft | 377 kts | 313° |
| 2026-04-26 12:46 | 53.44009 | -3.21805 | 19597 ft | 374 kts | 313° |
| 2026-04-26 12:46 | 53.45848 | -3.24856 | 20384 ft | 369 kts | 312° |
| 2026-04-26 12:47 | 53.47662 | -3.27898 | 21118 ft | 366 kts | 312° |
| 2026-04-26 12:47 | 53.49448 | -3.30927 | 21785 ft | 365 kts | 311° |
| 2026-04-26 12:47 | 53.51232 | -3.33973 | 22484 ft | 364 kts | 311° |
| 2026-04-26 12:47 | 53.53000 | -3.37001 | 23216 ft | 361 kts | 311° |
| 2026-04-26 12:48 | 53.54730 | -3.39971 | 23904 ft | 359 kts | 311° |
| 2026-04-26 12:48 | 53.56477 | -3.42974 | 24150 ft | 357 kts | 311° |
| 2026-04-26 12:48 | 53.58185 | -3.46025 | 24274 ft | 358 kts | 306° |
| 2026-04-26 12:48 | 53.59659 | -3.49390 | 24275 ft | 356 kts | 301° |
| 2026-04-26 12:49 | 53.61052 | -3.52819 | 24274 ft | 355 kts | 301° |
| 2026-04-26 12:49 | 53.62455 | -3.56238 | 24274 ft | 354 kts | 302° |
| 2026-04-26 12:49 | 53.63873 | -3.59642 | 24278 ft | 354 kts | 302° |
| 2026-04-26 12:49 | 53.65298 | -3.63040 | 24281 ft | 354 kts | 302° |
| 2026-04-26 12:50 | 53.66718 | -3.66428 | 24290 ft | 354 kts | 302° |
| 2026-04-26 12:50 | 53.68122 | -3.69784 | 24283 ft | 354 kts | 302° |
| 2026-04-26 12:50 | 53.69547 | -3.73194 | 24293 ft | 354 kts | 301° |
| 2026-04-26 12:50 | 53.70968 | -3.76600 | 24290 ft | 355 kts | 301° |
| 2026-04-26 12:51 | 53.72389 | -3.80011 | 24288 ft | 355 kts | 301° |
| 2026-04-26 12:51 | 53.73800 | -3.83402 | 24288 ft | 356 kts | 301° |
| 2026-04-26 12:51 | 53.75224 | -3.86831 | 24284 ft | 356 kts | 301° |
| 2026-04-26 12:51 | 53.76655 | -3.90279 | 24279 ft | 356 kts | 301° |
| 2026-04-26 12:52 | 53.78079 | -3.93718 | 24278 ft | 357 kts | 301° |
| 2026-04-26 12:52 | 53.79504 | -3.97160 | 24280 ft | 357 kts | 301° |
| 2026-04-26 12:52 | 53.80908 | -4.00558 | 24280 ft | 356 kts | 301° |
| 2026-04-26 12:52 | 53.82333 | -4.04014 | 24279 ft | 356 kts | 301° |
| 2026-04-26 12:53 | 53.83748 | -4.07447 | 24280 ft | 356 kts | 301° |
| 2026-04-26 12:53 | 53.85171 | -4.10903 | 24279 ft | 356 kts | 301° |
| 2026-04-26 12:53 | 53.86589 | -4.14353 | 24280 ft | 356 kts | 301° |
| 2026-04-26 12:53 | 53.87989 | -4.17767 | 24280 ft | 356 kts | 301° |
| 2026-04-26 12:54 | 53.89402 | -4.21218 | 24279 ft | 356 kts | 301° |
| 2026-04-26 12:54 | 53.90817 | -4.24680 | 24282 ft | 357 kts | 301° |
| 2026-04-26 12:54 | 53.92230 | -4.28140 | 24305 ft | 357 kts | 301° |
| 2026-04-26 12:54 | 53.93646 | -4.31611 | 24296 ft | 357 kts | 301° |
| 2026-04-26 12:55 | 53.95053 | -4.35079 | 24296 ft | 357 kts | 301° |
| 2026-04-26 12:55 | 53.96441 | -4.38586 | 24291 ft | 357 kts | 300° |
| 2026-04-26 12:55 | 53.97803 | -4.42070 | 24289 ft | 357 kts | 300° |
| 2026-04-26 12:55 | 53.99174 | -4.45592 | 24291 ft | 357 kts | 300° |
| 2026-04-26 12:56 | 54.00544 | -4.49116 | 24292 ft | 356 kts | 300° |
| 2026-04-26 12:56 | 54.01909 | -4.52624 | 24293 ft | 356 kts | 300° |
| 2026-04-26 12:56 | 54.03281 | -4.56153 | 24293 ft | 356 kts | 300° |
| 2026-04-26 12:56 | 54.04646 | -4.59666 | 24294 ft | 356 kts | 300° |
| 2026-04-26 12:57 | 54.05995 | -4.63141 | 24294 ft | 355 kts | 300° |
| 2026-04-26 12:57 | 54.07358 | -4.66656 | 24293 ft | 355 kts | 300° |
| 2026-04-26 12:57 | 54.08720 | -4.70172 | 24280 ft | 355 kts | 300° |
| 2026-04-26 12:58 | 54.10763 | -4.75455 | 24281 ft | 356 kts | 300° |
| 2026-04-26 12:59 | 54.11066 | -4.76240 | 24288 ft | 356 kts | 300° |
| 2026-04-26 12:59 | 54.12423 | -4.79757 | 24277 ft | 355 kts | 301° |
| 2026-04-26 12:59 | 54.13779 | -4.83281 | 24266 ft | 354 kts | 300° |
| 2026-04-26 12:59 | 54.15110 | -4.86741 | 24285 ft | 354 kts | 301° |
| 2026-04-26 13:00 | 54.16464 | -4.90262 | 24287 ft | 353 kts | 301° |
| 2026-04-26 13:00 | 54.17796 | -4.93732 | 24279 ft | 353 kts | 301° |
| 2026-04-26 13:00 | 54.19141 | -4.97238 | 24278 ft | 352 kts | 301° |
| 2026-04-26 13:00 | 54.20479 | -5.00731 | 24279 ft | 351 kts | 301° |
| 2026-04-26 13:01 | 54.21805 | -5.04197 | 24262 ft | 343 kts | 301° |
| 2026-04-26 13:01 | 54.23101 | -5.07589 | 24036 ft | 339 kts | 301° |
| 2026-04-26 13:01 | 54.24383 | -5.10950 | 23790 ft | 335 kts | 301° |
| 2026-04-26 13:01 | 54.25642 | -5.14256 | 23431 ft | 333 kts | 301° |
| 2026-04-26 13:02 | 54.26894 | -5.17550 | 23080 ft | 330 kts | 301° |
| 2026-04-26 13:02 | 54.28142 | -5.20838 | 22741 ft | 327 kts | 301° |
| 2026-04-26 13:02 | 54.29375 | -5.24090 | 22405 ft | 324 kts | 301° |
| 2026-04-26 13:02 | 54.30602 | -5.27331 | 22069 ft | 322 kts | 300° |
| 2026-04-26 13:03 | 54.31800 | -5.30498 | 21742 ft | 319 kts | 300° |
| 2026-04-26 13:03 | 54.33004 | -5.33687 | 21410 ft | 318 kts | 301° |
| 2026-04-26 13:03 | 54.34207 | -5.36877 | 21093 ft | 319 kts | 301° |
| 2026-04-26 13:03 | 54.35416 | -5.40088 | 20767 ft | 320 kts | 301° |
| 2026-04-26 13:04 | 54.36622 | -5.43294 | 20437 ft | 318 kts | 301° |
| 2026-04-26 13:04 | 54.37818 | -5.46476 | 20114 ft | 316 kts | 300° |
| 2026-04-26 13:04 | 54.38994 | -5.49611 | 19796 ft | 315 kts | 300° |
| 2026-04-26 13:04 | 54.40190 | -5.52800 | 19467 ft | 313 kts | 300° |
| 2026-04-26 13:05 | 54.41349 | -5.55897 | 19150 ft | 312 kts | 300° |
| 2026-04-26 13:05 | 54.42518 | -5.59023 | 18833 ft | 310 kts | 300° |
| 2026-04-26 13:05 | 54.43682 | -5.62141 | 18500 ft | 309 kts | 300° |
| 2026-04-26 13:05 | 54.44844 | -5.65257 | 18131 ft | 307 kts | 300° |
| 2026-04-26 13:06 | 54.45996 | -5.68352 | 17797 ft | 305 kts | 300° |
| 2026-04-26 13:06 | 54.47139 | -5.71422 | 17464 ft | 304 kts | 300° |
| 2026-04-26 13:06 | 54.48274 | -5.74477 | 17140 ft | 302 kts | 300° |
| 2026-04-26 13:06 | 54.49391 | -5.77488 | 16824 ft | 300 kts | 300° |
| 2026-04-26 13:07 | 54.50510 | -5.80508 | 16514 ft | 298 kts | 300° |
| 2026-04-26 13:07 | 54.51609 | -5.83476 | 16208 ft | 296 kts | 300° |
| 2026-04-26 13:07 | 54.52712 | -5.86459 | 15912 ft | 294 kts | 300° |
| 2026-04-26 13:07 | 54.53812 | -5.89440 | 15598 ft | 293 kts | 300° |
| 2026-04-26 13:08 | 54.54902 | -5.92394 | 15295 ft | 292 kts | 300° |
| 2026-04-26 13:08 | 54.55992 | -5.95355 | 14983 ft | 292 kts | 300° |
| 2026-04-26 13:08 | 54.57080 | -5.98312 | 14680 ft | 291 kts | 300° |
| 2026-04-26 13:08 | 54.58160 | -6.01250 | 14376 ft | 290 kts | 300° |
| 2026-04-26 13:09 | 54.59236 | -6.04182 | 14073 ft | 289 kts | 300° |
| 2026-04-26 13:09 | 54.60299 | -6.07083 | 13747 ft | 288 kts | 299° |
| 2026-04-26 13:09 | 54.61370 | -6.10007 | 13421 ft | 287 kts | 299° |
| 2026-04-26 13:09 | 54.62436 | -6.12921 | 13105 ft | 286 kts | 299° |
| 2026-04-26 13:10 | 54.63493 | -6.15813 | 12793 ft | 285 kts | 299° |
| 2026-04-26 13:10 | 54.64548 | -6.18703 | 12487 ft | 283 kts | 299° |
| 2026-04-26 13:10 | 54.65597 | -6.21581 | 12173 ft | 282 kts | 299° |
| 2026-04-26 13:10 | 54.66693 | -6.24356 | 11838 ft | 285 kts | 310° |
| 2026-04-26 13:11 | 54.68308 | -6.26371 | 11541 ft | 287 kts | 326° |
| 2026-04-26 13:11 | 54.70027 | -6.28139 | 11226 ft | 287 kts | 326° |
| 2026-04-26 13:11 | 54.71749 | -6.29901 | 10921 ft | 287 kts | 326° |
| 2026-04-26 13:11 | 54.73442 | -6.31637 | 10621 ft | 286 kts | 326° |
| 2026-04-26 13:12 | 54.75147 | -6.33394 | 10323 ft | 285 kts | 326° |
| 2026-04-26 13:12 | 54.76854 | -6.35162 | 10000 ft | 285 kts | 326° |
| 2026-04-26 13:12 | 54.78552 | -6.36926 | 9684 ft | 283 kts | 326° |
| 2026-04-26 13:12 | 54.80238 | -6.38683 | 9376 ft | 282 kts | 326° |
| 2026-04-26 13:13 | 54.81916 | -6.40436 | 9076 ft | 281 kts | 326° |
| 2026-04-26 13:13 | 54.83588 | -6.42184 | 8784 ft | 279 kts | 326° |
| 2026-04-26 13:13 | 54.85247 | -6.43922 | 8498 ft | 278 kts | 326° |
| 2026-04-26 13:13 | 54.86898 | -6.45655 | 8202 ft | 277 kts | 326° |
| 2026-04-26 13:14 | 54.88531 | -6.47370 | 7917 ft | 276 kts | 326° |
| 2026-04-26 13:14 | 54.90170 | -6.49094 | 7631 ft | 275 kts | 326° |
| 2026-04-26 13:14 | 54.91811 | -6.50820 | 7344 ft | 274 kts | 326° |
| 2026-04-26 13:14 | 54.93443 | -6.52540 | 7054 ft | 273 kts | 326° |
| 2026-04-26 13:15 | 54.95078 | -6.54265 | 6767 ft | 272 kts | 326° |
| 2026-04-26 13:15 | 54.96673 | -6.55947 | 6490 ft | 270 kts | 326° |
| 2026-04-26 13:15 | 54.98276 | -6.57640 | 6194 ft | 269 kts | 327° |
| 2026-04-26 13:15 | 54.99335 | -6.58761 | 6014 ft | 268 kts | 327° |
| 2026-04-26 13:16 | 55.01461 | -6.61014 | 5635 ft | 266 kts | 327° |
| 2026-04-26 13:16 | 55.03043 | -6.62690 | 5347 ft | 265 kts | 327° |
| 2026-04-26 13:16 | 55.04602 | -6.64343 | 5150 ft | 260 kts | 327° |
| 2026-04-26 13:16 | 55.06116 | -6.65949 | 5026 ft | 253 kts | 327° |
| 2026-04-26 13:17 | 55.09028 | -6.69042 | 4822 ft | 244 kts | 326° |
| 2026-04-26 13:17 | 55.10491 | -6.70603 | 4732 ft | 246 kts | 325° |
| 2026-04-26 13:18 | 55.11797 | -6.75517 | 4416 ft | 236 kts | 252° |
| 2026-04-26 13:18 | 55.11126 | -6.78084 | 4344 ft | 229 kts | 244° |
| 2026-04-26 13:18 | 55.10063 | -6.83199 | 3767 ft | 221 kts | 252° |
| 2026-04-26 13:19 | 55.09614 | -6.85751 | 3467 ft | 217 kts | 253° |
| 2026-04-26 13:19 | 55.09176 | -6.88241 | 3185 ft | 213 kts | 253° |
| 2026-04-26 13:19 | 55.08741 | -6.90702 | 2900 ft | 209 kts | 253° |
| 2026-04-26 13:19 | 55.08317 | -6.93105 | 2603 ft | 204 kts | 253° |
| 2026-04-26 13:20 | 55.07906 | -6.95432 | 2328 ft | 198 kts | 253° |
| 2026-04-26 13:20 | 55.07507 | -6.97700 | 2053 ft | 194 kts | 253° |
| 2026-04-26 13:20 | 55.07125 | -6.99866 | 1790 ft | 183 kts | 253° |
| 2026-04-26 13:20 | 55.06764 | -7.01923 | 1549 ft | 171 kts | 254° |
| 2026-04-26 13:21 | 55.06426 | -7.03850 | 1339 ft | 160 kts | 254° |
| 2026-04-26 13:21 | 55.06214 | -7.05058 | 1188 ft | 154 kts | 255° |
| 2026-04-26 13:21 | 55.05802 | -7.07410 | 910 ft | 152 kts | 255° |
| 2026-04-26 13:21 | 55.05492 | -7.09181 | 707 ft | 155 kts | 255° |
| 2026-04-26 13:22 | 55.05168 | -7.10966 | 525 ft | 153 kts | 255° |
| 2026-04-26 13:22 | 55.04852 | -7.12731 | 319 ft | 153 kts | 256° |
| 2026-04-26 13:22 | 55.04558 | -7.14505 | 107 ft | 151 kts | 257° |
| 2026-04-26 13:22 | 55.04274 | -7.16179 | 29 ft | 123 kts | 254° |
| 2026-04-26 13:23 | 55.04087 | -7.17227 | 31 ft | 55 kts | 252° |
| 2026-04-26 13:23 | 55.04031 | -7.17465 | 30 ft | 13 kts | 227° |
| 2026-04-26 13:23 | 55.04040 | -7.17519 | 28 ft | 8 kts | 57° |
| 2026-04-26 13:23 | 55.04056 | -7.17427 | 31 ft | 8 kts | 73° |
| 2026-04-26 13:24 | 55.04070 | -7.17339 | 31 ft | 7 kts | 77° |
| 2026-04-26 13:24 | 55.04086 | -7.17238 | 31 ft | 11 kts | 73° |
| 2026-04-26 13:24 | 55.04120 | -7.17042 | 31 ft | 22 kts | 73° |
| 2026-04-26 13:24 | 55.04168 | -7.16768 | 33 ft | 24 kts | 73° |
| 2026-04-26 13:25 | 55.04215 | -7.16499 | 30 ft | 23 kts | 73° |
| 2026-04-26 13:25 | 55.04262 | -7.16238 | 29 ft | 23 kts | 72° |
| 2026-04-26 13:25 | 55.04285 | -7.15974 | 30 ft | 22 kts | 117° |
| 2026-04-26 13:25 | 55.04156 | -7.15901 | 29 ft | 22 kts | 166° |
| 2026-04-26 13:26 | 55.04077 | -7.15760 | 30 ft | 17 kts | 79° |
| 2026-04-26 13:26 | 55.04065 | -7.15696 | 30 ft | 7 kts | 167° |
| 2026-04-26 13:26 | 55.04027 | -7.15682 | 30 ft | 1 kts | 168° |
| 2026-04-26 13:26 | 55.04025 | -7.15681 | 30 ft | 0 kts | 167° |
| 2026-04-26 13:27 | 55.04023 | -7.15681 | 30 ft | 0 kts | 167° |